createdAt,value
2019-03-23T00:01:51.894Z,1.20
2019-03-23T00:04:21.377Z,1.20
2019-03-23T00:06:50.729Z,1.20
2019-03-23T00:09:20.169Z,1.10
2019-03-23T00:11:49.515Z,1.10
2019-03-23T00:14:18.899Z,1.10
2019-03-23T00:16:48.209Z,1.10
2019-03-23T00:19:17.812Z,1.10
2019-03-23T00:21:47.108Z,1.00
2019-03-23T00:24:16.430Z,1.00
2019-03-23T00:26:45.727Z,1.00
2019-03-23T00:29:15.043Z,1.10
2019-03-23T00:31:44.413Z,1.00
2019-03-23T00:34:13.799Z,1.00
2019-03-23T00:36:43.148Z,0.90
2019-03-23T00:39:12.498Z,0.90
2019-03-23T00:41:41.802Z,0.90
2019-03-23T00:44:11.160Z,0.90
2019-03-23T00:46:40.450Z,0.90
2019-03-23T00:49:09.745Z,0.90
2019-03-23T00:51:39.278Z,0.90
2019-03-23T00:54:08.585Z,0.80
2019-03-23T00:56:37.870Z,0.80
2019-03-23T00:59:07.322Z,0.80
2019-03-23T01:01:36.761Z,0.80
2019-03-23T01:04:06.166Z,0.80
2019-03-23T01:06:35.530Z,0.80
2019-03-23T01:09:07.310Z,0.70
2019-03-23T01:11:36.647Z,0.70
2019-03-23T01:14:06.127Z,0.70
2019-03-23T01:16:35.927Z,0.70
2019-03-23T01:19:05.372Z,0.70
2019-03-23T01:21:34.646Z,0.70
2019-03-23T01:24:04.155Z,0.70
2019-03-23T01:26:33.422Z,0.60
2019-03-23T01:29:02.734Z,0.70
2019-03-23T01:31:32.020Z,0.60
2019-03-23T01:34:01.663Z,0.60
2019-03-23T01:36:30.987Z,0.60
2019-03-23T01:39:00.291Z,0.60
2019-03-23T01:41:29.913Z,0.60
2019-03-23T01:43:59.220Z,0.60
2019-03-23T01:46:28.835Z,0.60
2019-03-23T01:48:58.131Z,0.60
2019-03-23T01:51:27.679Z,0.50
2019-03-23T01:53:56.978Z,0.50
2019-03-23T01:56:26.265Z,0.50
2019-03-23T01:58:55.563Z,0.50
2019-03-23T02:01:24.866Z,0.40
2019-03-23T02:03:54.178Z,0.40
2019-03-23T02:06:23.462Z,0.40
2019-03-23T02:08:52.762Z,0.30
2019-03-23T02:11:22.110Z,0.30
2019-03-23T02:13:51.399Z,0.30
2019-03-23T02:16:20.675Z,0.30
2019-03-23T02:18:50.258Z,0.30
2019-03-23T02:21:19.572Z,0.30
2019-03-23T02:23:49.127Z,0.30
2019-03-23T02:26:18.418Z,0.30
2019-03-23T02:28:47.787Z,0.30
2019-03-23T02:31:17.409Z,0.20
2019-03-23T02:33:46.713Z,0.20
2019-03-23T02:36:16.275Z,0.20
2019-03-23T02:38:45.579Z,0.10
2019-03-23T02:41:14.867Z,0.10
2019-03-23T02:43:44.177Z,0.00
2019-03-23T02:46:13.467Z,0.00
2019-03-23T02:48:42.915Z,0.00
2019-03-23T02:51:12.212Z,0.00
2019-03-23T02:53:41.508Z,0.10
2019-03-23T02:56:10.791Z,0.10
2019-03-23T02:58:40.091Z,0.10
2019-03-23T03:01:09.375Z,0.00
2019-03-23T03:03:38.819Z,0.00
2019-03-23T03:06:08.129Z,0.00
2019-03-23T03:08:37.663Z,0.00
2019-03-23T03:11:07.214Z,0.00
2019-03-23T03:13:36.573Z,0.00
2019-03-23T03:16:05.895Z,-0.10
2019-03-23T03:18:35.260Z,-0.10
2019-03-23T03:21:04.646Z,-0.10
2019-03-23T03:23:33.930Z,-0.10
2019-03-23T03:26:03.222Z,-0.20
2019-03-23T03:28:32.597Z,-0.20
2019-03-23T03:31:02.329Z,-0.20
2019-03-23T03:33:31.727Z,-0.20
2019-03-23T03:36:01.126Z,-0.30
2019-03-23T03:38:30.705Z,-0.30
2019-03-23T03:41:00.095Z,-0.30
2019-03-23T03:43:29.381Z,-0.30
2019-03-23T03:45:58.706Z,-0.30
2019-03-23T03:48:27.972Z,-0.40
2019-03-23T03:50:57.518Z,-0.40
2019-03-23T03:53:26.831Z,-0.40
2019-03-23T03:55:56.123Z,-0.40
2019-03-23T03:58:25.415Z,-0.40
2019-03-23T04:00:54.721Z,-0.50
2019-03-23T04:03:24.028Z,-0.50
2019-03-23T04:05:53.412Z,-0.50
2019-03-23T04:08:22.710Z,-0.50
2019-03-23T04:10:52.131Z,-0.50
2019-03-23T04:13:21.428Z,-0.50
2019-03-23T04:15:50.741Z,-0.50
2019-03-23T04:18:20.348Z,-0.60
2019-03-23T04:20:49.653Z,-0.60
2019-03-23T04:23:18.959Z,-0.60
2019-03-23T04:25:48.258Z,-0.60
2019-03-23T04:28:17.823Z,-0.70
2019-03-23T04:30:47.179Z,-0.70
2019-03-23T04:33:16.510Z,-0.70
2019-03-23T04:35:45.800Z,-0.70
2019-03-23T04:38:22.537Z,-0.70
2019-03-23T04:40:46.395Z,-0.80
2019-03-23T04:43:15.694Z,-0.80
2019-03-23T04:45:45.038Z,-0.80
2019-03-23T04:48:14.386Z,-0.80
2019-03-23T04:50:43.751Z,-0.80
2019-03-23T04:53:13.410Z,-0.90
2019-03-23T04:55:42.711Z,-0.90
2019-03-23T04:58:12.029Z,-0.90
2019-03-23T05:00:41.654Z,-0.90
2019-03-23T05:03:10.975Z,-0.90
2019-03-23T05:05:40.318Z,-1.00
2019-03-23T05:08:09.794Z,-1.00
2019-03-23T05:10:39.110Z,-1.00
2019-03-23T05:13:08.438Z,-1.00
2019-03-23T05:15:37.738Z,-1.00
2019-03-23T05:18:07.147Z,-1.00
2019-03-23T05:20:36.524Z,-0.90
2019-03-23T05:23:05.898Z,-0.90
2019-03-23T05:25:35.304Z,-0.90
2019-03-23T05:28:04.721Z,-0.90
2019-03-23T05:30:34.023Z,-0.90
2019-03-23T05:33:03.563Z,-0.90
2019-03-23T05:35:33.030Z,-0.90
2019-03-23T05:38:02.336Z,-0.90
2019-03-23T05:40:31.653Z,-0.90
2019-03-23T05:43:00.962Z,-0.80
2019-03-23T05:45:30.547Z,-0.80
2019-03-23T05:48:00.011Z,-0.70
2019-03-23T05:50:29.338Z,-0.70
2019-03-23T05:52:58.675Z,-0.60
2019-03-23T05:55:28.316Z,-0.50
2019-03-23T05:57:57.634Z,-0.50
2019-03-23T06:00:27.061Z,-0.50
2019-03-23T06:02:56.385Z,-0.40
2019-03-23T06:05:25.718Z,-0.30
2019-03-23T06:07:55.031Z,-0.30
2019-03-23T06:10:24.449Z,-0.20
2019-03-23T06:12:53.847Z,-0.20
2019-03-23T06:15:23.389Z,-0.10
2019-03-23T06:17:52.719Z,0.00
2019-03-23T06:20:22.131Z,0.00
2019-03-23T06:22:51.454Z,0.10
2019-03-23T06:25:20.956Z,0.30
2019-03-23T06:27:50.258Z,0.40
2019-03-23T06:30:19.581Z,0.50
2019-03-23T06:32:48.902Z,0.60
2019-03-23T06:35:18.242Z,0.80
2019-03-23T06:37:47.883Z,0.90
2019-03-23T06:40:17.219Z,1.10
2019-03-23T06:42:46.606Z,1.30
2019-03-23T06:45:16.108Z,1.40
2019-03-23T06:47:45.532Z,1.50
2019-03-23T06:50:15.082Z,1.70
2019-03-23T06:52:44.399Z,1.90
2019-03-23T06:55:14.042Z,2.00
2019-03-23T06:57:43.358Z,2.20
2019-03-23T07:00:12.943Z,2.40
2019-03-23T07:02:42.610Z,2.70
2019-03-23T07:05:13.095Z,3.20
2019-03-23T07:07:42.510Z,3.90
2019-03-23T07:10:12.062Z,4.60
2019-03-23T07:12:41.581Z,5.20
2019-03-23T07:15:19.543Z,5.70
2019-03-23T07:17:42.731Z,6.20
2019-03-23T07:20:12.721Z,6.90
2019-03-23T07:22:42.779Z,7.70
2019-03-23T07:25:13.322Z,8.80
2019-03-23T07:27:42.651Z,10.20
2019-03-23T07:30:13.631Z,11.90
2019-03-23T07:32:43.119Z,13.60
2019-03-23T07:35:13.377Z,14.70
2019-03-23T07:37:42.777Z,14.70
2019-03-23T07:40:12.864Z,14.10
2019-03-23T07:42:42.187Z,14.00
2019-03-23T07:45:12.609Z,14.70
2019-03-23T07:47:42.071Z,15.70
2019-03-23T07:50:11.846Z,16.40
2019-03-23T07:52:41.174Z,17.00
2019-03-23T07:55:12.314Z,17.70
2019-03-23T07:57:42.124Z,18.60
2019-03-23T08:00:13.816Z,19.70
2019-03-23T08:02:44.154Z,20.80
2019-03-23T08:05:13.545Z,21.00
2019-03-23T08:07:43.258Z,21.70
2019-03-23T08:10:26.641Z,22.20
2019-03-23T08:12:56.291Z,22.00
2019-03-23T08:15:25.678Z,22.50
2019-03-23T08:17:55.277Z,22.50
2019-03-23T08:20:24.643Z,22.70
2019-03-23T08:22:54.197Z,22.40
2019-03-23T08:25:23.567Z,22.40
2019-03-23T08:27:52.895Z,22.90
2019-03-23T08:30:22.207Z,23.80
2019-03-23T08:32:51.546Z,24.30
2019-03-23T08:35:20.959Z,24.50
2019-03-23T08:37:50.278Z,24.10
2019-03-23T08:40:19.968Z,23.40
2019-03-23T08:42:49.362Z,22.50
2019-03-23T08:45:18.722Z,21.50
2019-03-23T08:47:48.066Z,20.20
2019-03-23T08:50:17.692Z,19.00
2019-03-23T08:52:47.046Z,18.60
2019-03-23T08:55:16.354Z,18.20
2019-03-23T08:57:45.711Z,18.60
2019-03-23T09:00:15.309Z,18.70
2019-03-23T09:02:44.752Z,18.50
2019-03-23T09:05:14.163Z,17.90
2019-03-23T09:07:43.472Z,18.00
2019-03-23T09:10:13.151Z,17.60
2019-03-23T09:12:42.458Z,16.90
2019-03-23T09:15:12.231Z,16.00
2019-03-23T09:17:41.544Z,15.50
2019-03-23T09:20:11.843Z,14.50
2019-03-23T09:22:41.158Z,13.70
2019-03-23T09:25:10.652Z,13.00
2019-03-23T09:27:40.030Z,12.30
2019-03-23T09:30:10.139Z,11.90
2019-03-23T09:32:39.551Z,11.90
2019-03-23T09:35:09.320Z,11.70
2019-03-23T09:37:38.718Z,11.50
2019-03-23T09:40:11.021Z,11.30
2019-03-23T09:42:40.262Z,11.00
2019-03-23T09:45:09.941Z,11.00
2019-03-23T09:47:39.651Z,10.90
2019-03-23T09:50:09.646Z,10.80
2019-03-23T09:52:38.961Z,10.90
2019-03-23T09:55:08.574Z,10.90
2019-03-23T09:57:38.046Z,11.00
2019-03-23T10:00:08.472Z,11.10
2019-03-23T10:02:37.771Z,11.10
2019-03-23T10:05:07.426Z,11.00
2019-03-23T10:07:36.823Z,10.80
2019-03-23T10:10:07.115Z,10.70
2019-03-23T10:12:36.617Z,10.80
2019-03-23T10:15:06.878Z,10.70
2019-03-23T10:17:36.235Z,10.70
2019-03-23T10:20:06.520Z,10.70
2019-03-23T10:22:36.138Z,10.70
2019-03-23T10:25:05.723Z,10.60
2019-03-23T10:27:35.471Z,10.50
2019-03-23T10:30:05.401Z,10.50
2019-03-23T10:32:34.775Z,10.60
2019-03-23T10:35:05.418Z,10.80
2019-03-23T10:37:35.118Z,11.00
2019-03-23T10:40:04.830Z,11.10
2019-03-23T10:42:34.458Z,11.10
2019-03-23T10:45:04.266Z,11.30
2019-03-23T10:47:33.735Z,11.50
2019-03-23T10:50:03.171Z,11.60
2019-03-23T10:52:32.570Z,11.70
2019-03-23T10:55:01.882Z,11.60
2019-03-23T10:57:31.210Z,11.80
2019-03-23T11:00:00.603Z,11.70
2019-03-23T11:02:30.106Z,12.00
2019-03-23T11:05:19.188Z,12.20
2019-03-23T11:07:48.573Z,12.20
2019-03-23T11:10:18.150Z,12.60
2019-03-23T11:12:47.484Z,13.10
2019-03-23T11:15:17.562Z,13.30
2019-03-23T11:17:47.014Z,13.70
2019-03-23T11:20:16.519Z,13.90
2019-03-23T11:22:45.960Z,14.10
2019-03-23T11:25:15.495Z,14.20
2019-03-23T11:27:44.939Z,14.30
2019-03-23T11:30:14.716Z,14.10
2019-03-23T11:32:44.711Z,14.50
2019-03-23T11:35:14.415Z,15.00
2019-03-23T11:37:44.009Z,15.10
2019-03-23T11:40:13.685Z,15.40
2019-03-23T11:42:49.976Z,15.10
2019-03-23T11:45:14.387Z,14.50
2019-03-23T11:47:43.962Z,14.60
2019-03-23T11:50:13.532Z,14.30
2019-03-23T11:52:42.833Z,14.10
2019-03-23T11:55:12.816Z,14.30
2019-03-23T11:57:42.204Z,14.70
2019-03-23T12:00:12.581Z,14.90
2019-03-23T12:02:42.317Z,14.80
2019-03-23T12:05:11.754Z,14.90
2019-03-23T12:07:41.162Z,15.30
2019-03-23T12:10:11.057Z,15.30
2019-03-23T12:12:40.365Z,15.30
2019-03-23T12:15:10.257Z,15.10
2019-03-23T12:17:39.640Z,15.00
2019-03-23T12:20:10.121Z,14.50
2019-03-23T12:22:39.646Z,14.10
2019-03-23T12:25:09.406Z,14.50
2019-03-23T12:27:39.150Z,14.50
2019-03-23T12:30:10.069Z,14.30
2019-03-23T12:32:39.522Z,14.50
2019-03-23T12:35:09.311Z,14.70
2019-03-23T12:37:38.762Z,15.00
2019-03-23T12:40:09.003Z,14.50
2019-03-23T12:42:38.326Z,14.40
2019-03-23T12:45:08.235Z,14.20
2019-03-23T12:47:37.548Z,14.20
2019-03-23T12:50:07.983Z,14.30
2019-03-23T12:52:37.767Z,14.30
2019-03-23T12:55:07.598Z,14.50
2019-03-23T12:57:37.216Z,14.60
2019-03-23T13:00:09.070Z,14.50
2019-03-23T13:02:38.418Z,14.30
2019-03-23T13:05:08.249Z,14.20
2019-03-23T13:07:37.612Z,14.30
2019-03-23T13:10:07.866Z,14.30
2019-03-23T13:12:37.194Z,14.40
2019-03-23T13:15:08.135Z,14.60
2019-03-23T13:17:37.832Z,14.70
2019-03-23T13:20:08.757Z,14.90
2019-03-23T13:22:38.355Z,14.70
2019-03-23T13:25:08.387Z,14.70
2019-03-23T13:27:37.754Z,14.70
2019-03-23T13:30:08.295Z,14.80
2019-03-23T13:32:37.681Z,14.70
2019-03-23T13:35:07.866Z,14.50
2019-03-23T13:37:37.264Z,14.60
2019-03-23T13:40:07.202Z,14.10
2019-03-23T13:42:36.530Z,14.00
2019-03-23T13:45:07.129Z,14.00
2019-03-23T13:47:36.567Z,13.90
2019-03-23T13:50:06.920Z,14.40
2019-03-23T13:52:36.362Z,15.20
2019-03-23T13:55:06.573Z,15.50
2019-03-23T13:57:36.056Z,15.10
2019-03-23T14:00:06.319Z,14.50
2019-03-23T14:02:35.802Z,14.10
2019-03-23T14:05:12.253Z,13.80
2019-03-23T14:07:37.089Z,13.70
2019-03-23T14:10:06.846Z,13.90
2019-03-23T14:12:36.130Z,14.00
2019-03-23T14:15:06.113Z,14.20
2019-03-23T14:17:35.414Z,14.30
2019-03-23T14:20:05.330Z,14.10
2019-03-23T14:22:34.835Z,13.60
2019-03-23T14:25:04.735Z,13.10
2019-03-23T14:27:34.135Z,12.70
2019-03-23T14:30:04.074Z,12.40
2019-03-23T14:32:33.635Z,12.20
2019-03-23T14:35:03.155Z,12.10
2019-03-23T14:37:32.483Z,12.00
2019-03-23T14:40:01.779Z,11.80
2019-03-23T14:42:31.372Z,11.70
2019-03-23T14:45:00.679Z,11.80
2019-03-23T14:47:30.062Z,11.80
2019-03-23T14:49:59.438Z,11.80
2019-03-23T14:52:28.757Z,11.70
2019-03-23T14:54:58.143Z,11.70
2019-03-23T14:57:27.941Z,11.80
2019-03-23T14:59:57.247Z,11.90
2019-03-23T15:02:26.550Z,12.00
2019-03-23T15:04:55.871Z,12.00
2019-03-23T15:07:25.443Z,12.00
2019-03-23T15:09:54.742Z,12.00
2019-03-23T15:12:24.125Z,11.90
2019-03-23T15:14:53.423Z,11.90
2019-03-23T15:17:22.783Z,11.80
2019-03-23T15:19:52.362Z,11.90
2019-03-23T15:22:21.687Z,11.80
2019-03-23T15:24:51.276Z,11.70
2019-03-23T15:27:20.573Z,11.70
2019-03-23T15:29:49.866Z,11.60
2019-03-23T15:32:19.184Z,11.50
2019-03-23T15:34:48.863Z,11.40
2019-03-23T15:37:18.178Z,11.30
2019-03-23T15:39:47.506Z,11.20
2019-03-23T15:42:24.407Z,11.10
2019-03-23T15:44:47.923Z,11.10
2019-03-23T15:47:17.227Z,11.10
2019-03-23T15:49:46.649Z,11.10
2019-03-23T15:52:15.942Z,11.10
2019-03-23T15:54:45.238Z,11.10
2019-03-23T15:57:20.808Z,11.00
2019-03-23T15:59:50.122Z,11.00
2019-03-23T16:02:19.434Z,11.00
2019-03-23T16:04:48.731Z,10.90
2019-03-23T16:07:18.046Z,10.90
2019-03-23T16:09:47.347Z,10.80
2019-03-23T16:12:16.646Z,10.80
2019-03-23T16:14:45.958Z,10.80
2019-03-23T16:17:15.614Z,10.80
2019-03-23T16:19:44.982Z,10.70
2019-03-23T16:22:14.299Z,10.70
2019-03-23T16:24:43.644Z,10.70
2019-03-23T16:27:12.940Z,10.70
2019-03-23T16:29:42.250Z,10.70
2019-03-23T16:32:11.893Z,10.80
2019-03-23T16:34:41.506Z,10.80
2019-03-23T16:37:10.799Z,10.80
2019-03-23T16:39:40.098Z,10.90
2019-03-23T16:42:09.440Z,11.00
2019-03-23T16:44:38.751Z,11.10
2019-03-23T16:47:08.133Z,11.10
2019-03-23T16:49:37.451Z,11.20
2019-03-23T16:52:06.822Z,11.30
2019-03-23T16:54:36.210Z,11.20
2019-03-23T16:57:05.906Z,11.20
2019-03-23T16:59:36.396Z,11.10
2019-03-23T17:02:05.871Z,11.00
2019-03-23T17:04:35.170Z,10.80
2019-03-23T17:07:04.550Z,10.50
2019-03-23T17:09:33.973Z,10.40
2019-03-23T17:12:03.307Z,10.10
2019-03-23T17:14:32.632Z,9.90
2019-03-23T17:17:02.063Z,9.80
2019-03-23T17:19:31.503Z,9.60
2019-03-23T17:22:00.807Z,9.50
2019-03-23T17:24:30.135Z,9.40
2019-03-23T17:26:59.618Z,9.20
2019-03-23T17:29:28.938Z,9.10
2019-03-23T17:31:58.275Z,9.00
2019-03-23T17:34:27.643Z,8.90
2019-03-23T17:36:56.983Z,8.70
2019-03-23T17:39:26.415Z,8.60
2019-03-23T17:41:55.715Z,8.50
2019-03-23T17:44:25.088Z,8.30
2019-03-23T17:46:54.489Z,8.20
2019-03-23T17:49:23.809Z,8.00
2019-03-23T17:51:55.396Z,8.00
2019-03-23T17:54:24.159Z,7.90
2019-03-23T17:56:54.082Z,7.80
2019-03-23T17:59:23.547Z,7.70
2019-03-23T18:01:52.967Z,7.60
2019-03-23T18:04:22.288Z,7.50
2019-03-23T18:06:51.615Z,7.40
2019-03-23T18:09:21.184Z,7.20
2019-03-23T18:11:50.581Z,6.90
2019-03-23T18:14:20.582Z,6.70
2019-03-23T18:16:50.071Z,6.50
2019-03-23T18:19:19.383Z,6.30
2019-03-23T18:21:49.142Z,6.00
2019-03-23T18:24:18.454Z,5.80
2019-03-23T18:26:47.799Z,5.70
2019-03-23T18:29:17.088Z,5.50
2019-03-23T18:31:46.521Z,5.30
2019-03-23T18:34:15.886Z,5.10
2019-03-23T18:36:45.343Z,5.00
2019-03-23T18:39:15.010Z,4.90
2019-03-23T18:41:44.711Z,4.70
2019-03-23T18:44:16.366Z,4.60
2019-03-23T18:46:45.272Z,4.40
2019-03-23T18:49:14.575Z,4.30
2019-03-23T18:51:43.894Z,4.20
2019-03-23T18:54:13.199Z,4.10
2019-03-23T18:56:42.510Z,4.00
2019-03-23T18:59:11.805Z,3.90
2019-03-23T19:01:41.462Z,3.90
2019-03-23T19:04:10.796Z,3.80
2019-03-23T19:06:40.119Z,3.70
2019-03-23T19:09:09.418Z,3.60
2019-03-23T19:11:39.382Z,3.50
2019-03-23T19:14:08.770Z,3.40
2019-03-23T19:16:38.068Z,3.30
2019-03-23T19:19:07.519Z,3.30
2019-03-23T19:21:36.966Z,3.20
2019-03-23T19:24:06.371Z,3.10
2019-03-23T19:26:35.738Z,3.10
2019-03-23T19:29:05.126Z,3.00
2019-03-23T19:31:34.443Z,2.90
2019-03-23T19:34:04.142Z,2.90
2019-03-23T19:36:33.488Z,2.80
2019-03-23T19:39:04.476Z,2.70
2019-03-23T19:41:33.914Z,2.70
2019-03-23T19:44:03.328Z,2.60
2019-03-23T19:46:32.634Z,2.60
2019-03-23T19:49:02.020Z,2.50
2019-03-23T19:51:31.344Z,2.50
2019-03-23T19:54:01.005Z,2.40
2019-03-23T19:56:30.438Z,2.40
2019-03-23T19:58:59.774Z,2.30
2019-03-23T20:01:29.083Z,2.30
2019-03-23T20:03:58.413Z,2.30
2019-03-23T20:06:28.077Z,2.20
2019-03-23T20:08:57.375Z,2.20
2019-03-23T20:11:26.682Z,2.20
2019-03-23T20:13:59.040Z,2.20
2019-03-23T20:16:26.991Z,2.10
2019-03-23T20:18:56.374Z,2.10
2019-03-23T20:21:25.675Z,2.10
2019-03-23T20:23:54.983Z,2.10
2019-03-23T20:26:24.278Z,2.00
2019-03-23T20:28:53.580Z,2.10
2019-03-23T20:31:22.877Z,2.00
2019-03-23T20:33:52.199Z,2.00
2019-03-23T20:36:21.584Z,2.00
2019-03-23T20:38:50.919Z,1.90
2019-03-23T20:41:20.515Z,1.90
2019-03-23T20:43:49.890Z,1.90
2019-03-23T20:46:19.204Z,1.90
2019-03-23T20:48:48.740Z,1.80
2019-03-23T20:51:18.302Z,1.80
2019-03-23T20:53:47.705Z,1.80
2019-03-23T20:56:17.083Z,1.70
2019-03-23T20:58:46.546Z,1.70
2019-03-23T21:01:15.874Z,1.60
2019-03-23T21:03:45.173Z,1.60
2019-03-23T21:06:14.558Z,1.50
2019-03-23T21:08:43.850Z,1.50
2019-03-23T21:11:13.247Z,1.50
2019-03-23T21:13:42.541Z,1.40
2019-03-23T21:16:11.910Z,1.40
2019-03-23T21:18:41.207Z,1.40
2019-03-23T21:21:10.517Z,1.40
2019-03-23T21:23:40.143Z,1.40
2019-03-23T21:26:09.558Z,1.40
2019-03-23T21:28:38.863Z,1.30
2019-03-23T21:31:08.347Z,1.30
2019-03-23T21:33:38.976Z,1.30
2019-03-23T21:36:08.491Z,1.30
2019-03-23T21:38:37.819Z,1.30
2019-03-23T21:41:07.414Z,1.30
2019-03-23T21:43:36.723Z,1.30
2019-03-23T21:46:06.117Z,1.20
2019-03-23T21:48:35.549Z,1.20
2019-03-23T21:51:04.961Z,1.20
2019-03-23T21:53:34.258Z,1.20
2019-03-23T21:56:03.741Z,1.20
2019-03-23T21:58:33.267Z,1.10
2019-03-23T22:01:02.664Z,1.10
2019-03-23T22:03:31.970Z,1.10
2019-03-23T22:06:01.562Z,1.10
2019-03-23T22:08:30.850Z,1.10
2019-03-23T22:11:00.407Z,1.10
2019-03-23T22:13:29.708Z,1.00
2019-03-23T22:15:59.031Z,1.00
2019-03-23T22:18:28.678Z,1.00
2019-03-23T22:20:57.986Z,0.90
2019-03-23T22:23:27.308Z,0.90
2019-03-23T22:25:56.604Z,0.80
2019-03-23T22:28:25.917Z,0.80
2019-03-23T22:30:55.224Z,0.80
2019-03-23T22:33:24.558Z,0.70
2019-03-23T22:35:53.894Z,0.70
2019-03-23T22:38:23.202Z,0.60
2019-03-23T22:40:52.504Z,0.60
2019-03-23T22:43:21.810Z,0.60
2019-03-23T22:45:51.346Z,0.50
2019-03-23T22:48:20.641Z,0.50
2019-03-23T22:50:50.010Z,0.50
2019-03-23T22:53:19.694Z,0.40
2019-03-23T22:55:49.077Z,0.40
2019-03-23T22:58:18.468Z,0.40
2019-03-23T23:00:48.687Z,0.40
2019-03-23T23:03:18.060Z,0.30
2019-03-23T23:06:06.306Z,0.30
2019-03-23T23:08:35.850Z,0.30
2019-03-23T23:11:05.243Z,0.20
2019-03-23T23:13:34.817Z,0.20
2019-03-23T23:16:04.175Z,0.10
2019-03-23T23:18:33.496Z,0.10
2019-03-23T23:21:02.779Z,0.10
2019-03-23T23:23:32.079Z,0.10
2019-03-23T23:26:01.386Z,0.00
2019-03-23T23:28:30.699Z,-0.10
2019-03-23T23:30:59.982Z,-0.10
2019-03-23T23:33:29.289Z,-0.10
2019-03-23T23:35:58.581Z,-0.20
2019-03-23T23:38:27.949Z,-0.20
2019-03-23T23:40:57.239Z,-0.20
2019-03-23T23:43:26.685Z,-0.20
2019-03-23T23:45:55.978Z,-0.20
2019-03-23T23:48:25.299Z,-0.20
2019-03-23T23:50:54.618Z,-0.30
2019-03-23T23:53:23.965Z,-0.30
2019-03-23T23:55:53.254Z,-0.20
2019-03-23T23:58:22.563Z,-0.30
